createdAt,value
2017-04-18T00:00:16.627Z,1.93
2017-04-18T00:01:20.718Z,1.90
2017-04-18T00:02:23.509Z,1.85
2017-04-18T00:03:28.683Z,1.90
2017-04-18T00:04:33.384Z,1.48
2017-04-18T00:05:36.484Z,2.62
2017-04-18T00:06:40.115Z,1.85
2017-04-18T00:07:45.843Z,2.33
2017-04-18T00:08:49.578Z,2.32
2017-04-18T00:09:54.466Z,2.95
2017-04-18T00:11:00.325Z,2.33
2017-04-18T00:12:04.043Z,2.37
2017-04-18T00:13:07.554Z,2.88
2017-04-18T00:14:12.269Z,3.02
2017-04-18T00:15:16.877Z,3.13
2017-04-18T00:16:18.968Z,4.57
2017-04-18T00:17:20.063Z,2.37
2017-04-18T00:18:25.159Z,2.57
2017-04-18T00:19:26.411Z,2.32
2017-04-18T00:20:27.452Z,2.50
2017-04-18T00:21:28.395Z,5.63
2017-04-18T00:22:29.885Z,4.35
2017-04-18T00:23:31.074Z,4.83
2017-04-18T00:24:31.984Z,2.58
2017-04-18T00:25:33.039Z,2.52
2017-04-18T00:26:34.314Z,3.43
2017-04-18T00:27:35.293Z,1.92
2017-04-18T00:28:36.787Z,3.05
2017-04-18T00:29:37.831Z,1.98
2017-04-18T00:30:38.964Z,3.00
2017-04-18T00:31:39.928Z,2.57
2017-04-18T00:32:40.977Z,2.12
2017-04-18T00:33:41.902Z,2.73
2017-04-18T00:34:43.020Z,5.00
2017-04-18T00:35:44.282Z,2.67
2017-04-18T00:36:45.299Z,3.02
2017-04-18T00:37:46.315Z,3.02
2017-04-18T00:38:47.546Z,2.85
2017-04-18T00:39:48.577Z,2.97
2017-04-18T00:40:49.738Z,3.70
2017-04-18T00:41:50.879Z,4.38
2017-04-18T00:42:52.049Z,2.32
2017-04-18T00:43:53.207Z,3.38
2017-04-18T00:44:54.360Z,2.65
2017-04-18T00:45:55.275Z,2.92
2017-04-18T00:46:56.219Z,2.90
2017-04-18T00:47:57.295Z,3.25
2017-04-18T00:48:58.470Z,2.85
2017-04-18T00:49:59.653Z,3.95
2017-04-18T00:51:00.587Z,4.92
2017-04-18T00:52:01.591Z,2.83
2017-04-18T00:53:02.636Z,3.00
2017-04-18T00:54:03.563Z,2.92
2017-04-18T00:55:05.140Z,3.75
2017-04-18T00:56:06.061Z,2.47
2017-04-18T00:57:07.209Z,2.48
2017-04-18T00:58:08.335Z,3.63
2017-04-18T00:59:09.246Z,3.87
2017-04-18T01:00:10.541Z,3.28
2017-04-18T01:01:11.508Z,2.92
2017-04-18T01:02:12.687Z,3.52
2017-04-18T01:03:14.155Z,3.02
2017-04-18T01:04:15.087Z,2.97
2017-04-18T01:05:16.320Z,3.87
2017-04-18T01:06:17.262Z,3.40
2017-04-18T01:07:18.370Z,4.42
2017-04-18T01:08:19.475Z,3.40
2017-04-18T01:09:20.470Z,2.60
2017-04-18T01:10:21.875Z,4.22
2017-04-18T01:11:22.856Z,4.25
2017-04-18T01:12:23.870Z,3.10
2017-04-18T01:13:24.813Z,3.82
2017-04-18T01:14:25.869Z,3.63
2017-04-18T01:15:27.038Z,2.82
2017-04-18T01:16:27.977Z,4.35
2017-04-18T01:17:28.947Z,3.00
2017-04-18T01:18:29.880Z,2.75
2017-04-18T01:19:30.823Z,3.72
2017-04-18T01:20:31.802Z,4.82
2017-04-18T01:21:32.958Z,3.30
2017-04-18T01:22:34.487Z,4.45
2017-04-18T01:23:36.017Z,3.30
2017-04-18T01:24:36.941Z,4.20
2017-04-18T01:25:37.819Z,5.30
2017-04-18T01:26:38.946Z,4.25
2017-04-18T01:27:39.854Z,4.60
2017-04-18T01:28:41.010Z,3.90
2017-04-18T01:29:42.136Z,5.57
2017-04-18T01:30:43.213Z,4.58
2017-04-18T01:31:44.182Z,4.02
2017-04-18T01:32:45.342Z,3.87
2017-04-18T01:33:46.647Z,4.03
2017-04-18T01:34:47.646Z,4.23
2017-04-18T01:35:49.247Z,4.52
2017-04-18T01:36:50.768Z,6.02
2017-04-18T01:37:51.794Z,4.07
2017-04-18T01:38:52.892Z,4.28
2017-04-18T01:39:57.975Z,6.00
2017-04-18T01:42:07.156Z,4.32
2017-04-18T01:43:13.733Z,4.10
2017-04-18T01:44:20.217Z,4.20
2017-04-18T01:46:27.586Z,3.70
2017-04-18T01:47:29.098Z,5.73
2017-04-18T01:48:30.187Z,4.12
2017-04-18T01:49:31.168Z,4.85
2017-04-18T01:50:32.078Z,3.97
2017-04-18T01:51:32.967Z,4.12
2017-04-18T01:52:34.048Z,5.75
2017-04-18T01:53:35.217Z,5.35
2017-04-18T01:54:37.352Z,6.05
2017-04-18T01:55:38.430Z,5.73
2017-04-18T01:56:39.392Z,4.98
2017-04-18T01:57:40.246Z,5.05
2017-04-18T01:58:41.373Z,6.25
2017-04-18T01:59:42.464Z,7.60
2017-04-18T02:00:43.812Z,5.67
2017-04-18T02:01:44.989Z,5.30
2017-04-18T02:02:46.009Z,5.85
2017-04-18T02:03:46.945Z,5.15
2017-04-18T02:04:47.975Z,5.38
2017-04-18T02:05:49.015Z,6.15
2017-04-18T02:06:50.205Z,5.90
2017-04-18T02:07:51.328Z,5.17
2017-04-18T02:08:52.336Z,4.30
2017-04-18T02:09:53.777Z,5.68
2017-04-18T02:10:54.814Z,5.27
2017-04-18T02:11:55.868Z,4.77
2017-04-18T02:12:56.748Z,5.30
2017-04-18T02:13:58.200Z,4.17
2017-04-18T02:14:59.349Z,4.77
2017-04-18T02:16:00.307Z,6.87
2017-04-18T02:17:01.649Z,4.60
2017-04-18T02:18:02.760Z,3.98
2017-04-18T02:19:04.063Z,3.52
2017-04-18T02:20:05.175Z,4.05
2017-04-18T02:21:06.160Z,4.35
2017-04-18T02:22:07.223Z,2.80
2017-04-18T02:23:08.432Z,3.72
2017-04-18T02:24:09.624Z,3.30
2017-04-18T02:25:10.694Z,4.20
2017-04-18T02:26:11.802Z,4.40
2017-04-18T02:27:13.293Z,3.40
2017-04-18T02:28:14.587Z,4.15
2017-04-18T02:29:15.467Z,3.35
2017-04-18T02:30:16.374Z,3.63
2017-04-18T02:31:17.261Z,3.73
2017-04-18T02:32:18.395Z,3.72
2017-04-18T02:33:19.501Z,4.15
2017-04-18T02:34:20.465Z,3.75
2017-04-18T02:35:21.337Z,4.10
2017-04-18T02:36:22.649Z,5.32
2017-04-18T02:37:23.787Z,4.92
2017-04-18T02:38:24.861Z,4.72
2017-04-18T02:39:25.816Z,5.42
2017-04-18T02:40:26.942Z,6.77
2017-04-18T02:41:27.978Z,5.23
2017-04-18T02:42:28.919Z,4.75
2017-04-18T02:43:30.010Z,4.32
2017-04-18T02:44:31.129Z,7.15
2017-04-18T02:45:32.304Z,4.28
2017-04-18T02:46:33.372Z,5.65
2017-04-18T02:47:34.551Z,3.85
2017-04-18T02:48:35.656Z,7.12
2017-04-18T02:49:36.562Z,5.17
2017-04-18T02:50:37.648Z,5.23
2017-04-18T02:51:38.707Z,5.10
2017-04-18T02:52:39.845Z,5.87
2017-04-18T02:53:41.398Z,4.87
2017-04-18T02:54:42.551Z,5.32
2017-04-18T02:55:43.661Z,4.37
2017-04-18T02:56:44.824Z,5.30
2017-04-18T02:57:46.076Z,5.85
2017-04-18T02:58:47.478Z,5.22
2017-04-18T02:59:48.737Z,5.12
2017-04-18T03:00:50.044Z,5.10
2017-04-18T03:01:51.188Z,5.13
2017-04-18T03:02:52.472Z,5.77
2017-04-18T03:03:53.678Z,6.42
2017-04-18T03:04:55.010Z,5.88
2017-04-18T03:05:55.948Z,5.80
2017-04-18T03:06:57.027Z,5.92
2017-04-18T03:07:57.922Z,6.03
2017-04-18T03:08:59.066Z,5.82
2017-04-18T03:10:00.060Z,8.15
2017-04-18T03:11:01.052Z,7.57
2017-04-18T03:12:01.971Z,7.78
2017-04-18T03:13:03.040Z,6.02
2017-04-18T03:14:04.901Z,6.32
2017-04-18T03:15:05.980Z,7.30
2017-04-18T03:16:07.470Z,8.42
2017-04-18T03:17:08.452Z,7.13
2017-04-18T03:18:09.659Z,6.75
2017-04-18T03:19:10.627Z,6.27
2017-04-18T03:20:11.800Z,6.82
2017-04-18T03:21:12.681Z,9.00
2017-04-18T03:22:13.760Z,10.17
2017-04-18T03:23:14.840Z,8.57
2017-04-18T03:24:15.917Z,8.32
2017-04-18T03:25:17.041Z,8.35
2017-04-18T03:26:17.940Z,12.33
2017-04-18T03:27:19.744Z,11.28
2017-04-18T03:28:21.090Z,7.97
2017-04-18T03:29:22.227Z,10.43
2017-04-18T03:30:23.716Z,8.82
2017-04-18T03:31:24.673Z,9.65
2017-04-18T03:32:25.753Z,8.55
2017-04-18T03:33:26.937Z,9.03
2017-04-18T03:34:28.084Z,9.15
2017-04-18T03:35:29.154Z,10.22
2017-04-18T03:36:30.178Z,9.73
2017-04-18T03:37:31.264Z,9.33
2017-04-18T03:38:32.707Z,7.83
2017-04-18T03:39:33.807Z,9.30
2017-04-18T03:40:34.871Z,11.37
2017-04-18T03:41:36.009Z,10.70
2017-04-18T03:42:37.258Z,9.80
2017-04-18T03:43:38.369Z,10.85
2017-04-18T03:44:39.452Z,11.12
2017-04-18T03:45:40.522Z,9.30
2017-04-18T03:46:41.593Z,11.77
2017-04-18T03:47:42.949Z,10.02
2017-04-18T03:48:44.248Z,12.58
2017-04-18T03:49:45.393Z,10.40
2017-04-18T03:50:46.475Z,9.53
2017-04-18T03:51:47.779Z,10.47
2017-04-18T03:52:48.972Z,12.07
2017-04-18T03:53:50.218Z,10.38
2017-04-18T03:54:51.352Z,10.52
2017-04-18T03:55:52.667Z,9.85
2017-04-18T03:56:53.742Z,8.87
2017-04-18T03:57:54.962Z,10.08
2017-04-18T03:58:56.088Z,9.48
2017-04-18T03:59:57.180Z,8.78
2017-04-18T04:00:58.249Z,8.78
2017-04-18T04:01:59.135Z,7.92
2017-04-18T04:03:00.359Z,10.15
2017-04-18T04:04:04.697Z,9.20
2017-04-18T04:05:09.884Z,9.65
2017-04-18T04:06:15.139Z,10.03
2017-04-18T04:07:18.858Z,9.42
2017-04-18T04:08:23.942Z,8.43
2017-04-18T04:09:30.807Z,7.93
2017-04-18T04:10:36.576Z,8.97
2017-04-18T04:11:41.522Z,10.53
2017-04-18T04:12:44.445Z,9.50
2017-04-18T04:13:48.357Z,8.00
2017-04-18T04:14:53.922Z,10.38
2017-04-18T04:15:57.979Z,9.20
2017-04-18T04:17:01.251Z,13.20
2017-04-18T04:18:07.304Z,9.80
2017-04-18T04:19:12.428Z,10.28
2017-04-18T04:20:17.061Z,9.98
2017-04-18T04:21:21.256Z,11.28
2017-04-18T04:22:25.995Z,11.05
2017-04-18T04:23:27.609Z,11.10
2017-04-18T04:24:28.941Z,11.03
2017-04-18T04:25:30.050Z,13.07
2017-04-18T04:26:31.261Z,12.18
2017-04-18T04:27:32.358Z,11.57
2017-04-18T04:28:33.440Z,8.93
2017-04-18T04:29:34.544Z,7.42
2017-04-18T04:30:35.647Z,8.78
2017-04-18T04:31:36.797Z,9.48
2017-04-18T04:32:37.869Z,7.58
2017-04-18T04:33:39.104Z,6.90
2017-04-18T04:34:40.226Z,5.28
2017-04-18T04:35:41.717Z,5.20
2017-04-18T04:36:42.954Z,4.70
2017-04-18T04:37:44.150Z,4.72
2017-04-18T04:38:45.378Z,4.00
2017-04-18T04:39:46.440Z,4.27
2017-04-18T04:40:47.764Z,4.15
2017-04-18T04:41:48.871Z,3.38
2017-04-18T04:42:49.885Z,2.82
2017-04-18T04:43:51.484Z,3.03
2017-04-18T04:44:52.635Z,3.03
2017-04-18T04:45:53.715Z,2.82
2017-04-18T04:46:54.794Z,2.92
2017-04-18T04:47:55.896Z,3.03
2017-04-18T04:48:57.029Z,2.72
2017-04-18T04:49:58.167Z,2.52
2017-04-18T04:50:59.290Z,2.05
2017-04-18T04:52:00.360Z,2.83
2017-04-18T04:53:01.484Z,2.45
2017-04-18T04:54:02.744Z,2.40
2017-04-18T04:55:04.677Z,2.53
2017-04-18T04:56:05.778Z,2.88
2017-04-18T04:57:06.928Z,2.17
2017-04-18T04:58:08.288Z,2.23
2017-04-18T04:59:09.491Z,2.40
2017-04-18T05:00:10.677Z,2.28
2017-04-18T05:01:12.002Z,2.72
2017-04-18T05:02:13.070Z,2.53
2017-04-18T05:03:14.150Z,2.43
2017-04-18T05:04:15.645Z,3.82
2017-04-18T05:05:16.799Z,2.63
2017-04-18T05:06:17.974Z,3.25
2017-04-18T05:07:19.124Z,4.78
2017-04-18T05:08:20.075Z,4.55
2017-04-18T05:09:21.161Z,4.42
2017-04-18T05:10:22.284Z,5.25
2017-04-18T05:11:23.428Z,6.03
2017-04-18T05:12:24.377Z,5.05
2017-04-18T05:13:25.451Z,4.87
2017-04-18T05:14:26.528Z,4.85
2017-04-18T05:15:27.502Z,3.95
2017-04-18T05:16:28.577Z,5.33
2017-04-18T05:17:29.726Z,5.33
2017-04-18T05:18:30.805Z,5.85
2017-04-18T05:19:31.752Z,7.07
2017-04-18T05:20:32.876Z,6.63
2017-04-18T05:21:33.996Z,7.45
2017-04-18T05:22:35.068Z,7.18
2017-04-18T05:23:36.195Z,7.85
2017-04-18T05:24:37.305Z,7.70
2017-04-18T05:25:38.495Z,8.30
2017-04-18T05:26:39.711Z,9.23
2017-04-18T05:27:40.800Z,7.67
2017-04-18T05:28:41.876Z,9.30
2017-04-18T05:29:42.900Z,7.75
2017-04-18T05:30:44.113Z,9.72
2017-04-18T05:31:45.590Z,10.18
2017-04-18T05:32:46.728Z,10.35
2017-04-18T05:33:47.844Z,8.40
2017-04-18T05:34:49.084Z,9.63
2017-04-18T05:35:50.323Z,7.97
2017-04-18T05:36:51.633Z,8.97
2017-04-18T05:37:52.831Z,10.88
2017-04-18T05:38:53.947Z,10.27
2017-04-18T05:39:55.034Z,12.57
2017-04-18T05:40:56.168Z,11.87
2017-04-18T05:41:57.341Z,11.90
2017-04-18T05:42:58.552Z,11.57
2017-04-18T05:43:59.703Z,12.05
2017-04-18T05:45:00.610Z,11.48
2017-04-18T05:46:01.718Z,12.13
2017-04-18T05:47:02.948Z,10.92
2017-04-18T05:48:04.333Z,11.35
2017-04-18T05:49:07.136Z,11.45
2017-04-18T05:50:11.726Z,11.88
2017-04-18T05:51:14.727Z,12.42
2017-04-18T05:52:17.042Z,12.42
2017-04-18T05:53:18.200Z,11.43
2017-04-18T05:54:19.406Z,12.17
2017-04-18T05:55:20.512Z,10.22
2017-04-18T05:56:21.595Z,12.25
2017-04-18T05:57:22.843Z,12.87
2017-04-18T05:58:24.048Z,11.73
2017-04-18T05:59:25.171Z,11.70
2017-04-18T06:00:26.369Z,12.70
2017-04-18T06:01:27.307Z,11.82
2017-04-18T06:02:28.420Z,13.03
2017-04-18T06:03:29.597Z,11.98
2017-04-18T06:04:30.735Z,12.22
2017-04-18T06:05:31.883Z,11.58
2017-04-18T06:06:33.117Z,12.42
2017-04-18T06:07:34.088Z,14.40
2017-04-18T06:08:35.232Z,12.20
2017-04-18T06:09:36.414Z,12.47
2017-04-18T06:10:38.412Z,12.72
2017-04-18T06:11:39.547Z,14.27
2017-04-18T06:12:40.627Z,11.20
2017-04-18T06:13:41.789Z,12.25
2017-04-18T06:14:43.027Z,12.13
2017-04-18T06:15:44.288Z,13.22
2017-04-18T06:16:45.591Z,12.82
2017-04-18T06:17:46.775Z,11.95
2017-04-18T06:18:47.985Z,11.17
2017-04-18T06:19:49.142Z,14.48
2017-04-18T06:20:50.288Z,12.35
2017-04-18T06:21:51.517Z,11.75
2017-04-18T06:22:52.667Z,12.02
2017-04-18T06:23:53.641Z,14.00
2017-04-18T06:24:54.755Z,12.80
2017-04-18T06:25:55.911Z,11.60
2017-04-18T06:26:57.008Z,13.02
2017-04-18T06:27:58.146Z,11.87
2017-04-18T06:28:59.290Z,13.02
2017-04-18T06:30:00.399Z,13.68
2017-04-18T06:31:02.017Z,12.90
2017-04-18T06:32:03.076Z,15.67
2017-04-18T06:33:04.220Z,11.58
2017-04-18T06:34:06.224Z,12.43
2017-04-18T06:35:07.299Z,13.47
2017-04-18T06:36:08.506Z,13.75
2017-04-18T06:37:09.823Z,13.40
2017-04-18T06:38:10.958Z,11.85
2017-04-18T06:39:12.080Z,11.72
2017-04-18T06:40:13.167Z,11.53
2017-04-18T06:41:14.340Z,14.28
2017-04-18T06:42:15.461Z,13.13
2017-04-18T06:43:16.562Z,14.02
2017-04-18T06:44:17.739Z,13.20
2017-04-18T06:45:18.851Z,13.95
2017-04-18T06:46:19.993Z,15.75
2017-04-18T06:47:21.128Z,13.13
2017-04-18T06:48:22.289Z,17.98
2017-04-18T06:49:23.387Z,14.67
2017-04-18T06:50:24.488Z,16.43
2017-04-18T06:51:25.702Z,14.57
2017-04-18T06:52:26.881Z,17.15
2017-04-18T06:53:27.847Z,15.87
2017-04-18T06:54:28.886Z,17.98
2017-04-18T06:55:30.026Z,15.95
2017-04-18T06:56:31.024Z,17.10
2017-04-18T06:57:32.250Z,17.52
2017-04-18T06:58:33.470Z,16.00
2017-04-18T06:59:34.783Z,18.77
2017-04-18T07:00:35.935Z,13.87
2017-04-18T07:01:36.867Z,19.52
2017-04-18T07:02:38.038Z,17.58
2017-04-18T07:03:39.164Z,17.40
2017-04-18T07:04:40.351Z,20.10
2017-04-18T07:05:41.539Z,16.42
2017-04-18T07:06:42.699Z,18.95
2017-04-18T07:07:43.996Z,18.17
2017-04-18T07:08:45.004Z,21.35
2017-04-18T07:09:46.342Z,24.22
2017-04-18T07:10:47.587Z,19.33
2017-04-18T07:11:48.700Z,22.08
2017-04-18T07:12:50.282Z,19.83
2017-04-18T07:13:51.333Z,22.67
2017-04-18T07:14:52.577Z,19.62
2017-04-18T07:15:53.831Z,22.13
2017-04-18T07:16:55.014Z,20.28
2017-04-18T07:17:56.200Z,19.77
2017-04-18T07:18:57.426Z,18.85
2017-04-18T07:19:58.811Z,19.70
2017-04-18T07:20:59.946Z,21.47
2017-04-18T07:22:01.629Z,21.05
2017-04-18T07:23:02.903Z,19.78
2017-04-18T07:24:04.063Z,17.47
2017-04-18T07:25:05.182Z,21.22
2017-04-18T07:26:06.315Z,21.32
2017-04-18T07:27:07.653Z,18.62
2017-04-18T07:28:08.812Z,20.97
2017-04-18T07:29:10.308Z,18.85
2017-04-18T07:30:11.506Z,21.62
2017-04-18T07:31:12.613Z,22.05
2017-04-18T07:32:13.803Z,18.95
2017-04-18T07:33:14.917Z,18.73
2017-04-18T07:34:16.323Z,18.83
2017-04-18T07:35:17.568Z,17.63
2017-04-18T07:36:18.796Z,15.68
2017-04-18T07:37:20.277Z,20.03
2017-04-18T07:38:21.433Z,18.48
2017-04-18T07:39:22.695Z,19.35
2017-04-18T07:40:23.913Z,18.25
2017-04-18T07:41:25.192Z,17.72
2017-04-18T07:42:27.064Z,18.22
2017-04-18T07:43:28.460Z,17.77
2017-04-18T07:44:29.648Z,17.27
2017-04-18T07:45:31.090Z,20.83
2017-04-18T07:46:32.252Z,16.52
2017-04-18T07:47:33.459Z,16.42
2017-04-18T07:48:34.633Z,13.90
2017-04-18T07:49:36.043Z,15.83
2017-04-18T07:50:37.232Z,14.17
2017-04-18T07:51:38.348Z,14.13
2017-04-18T07:52:39.683Z,16.12
2017-04-18T07:53:40.922Z,13.72
2017-04-18T07:54:42.141Z,14.62
2017-04-18T07:55:43.523Z,14.77
2017-04-18T07:56:44.947Z,13.73
2017-04-18T07:57:46.412Z,15.72
2017-04-18T07:58:47.776Z,14.72
2017-04-18T07:59:48.973Z,15.12
2017-04-18T08:00:50.260Z,13.50
2017-04-18T08:01:51.314Z,11.82
2017-04-18T08:02:52.656Z,10.48
2017-04-18T08:03:53.927Z,13.12
2017-04-18T08:04:55.110Z,10.72
2017-04-18T08:05:56.307Z,10.18
2017-04-18T08:06:57.618Z,9.00
2017-04-18T08:07:58.783Z,9.43
2017-04-18T08:09:00.145Z,8.80
2017-04-18T08:10:01.120Z,9.22
2017-04-18T08:11:02.121Z,8.93
2017-04-18T08:12:03.337Z,13.52
2017-04-18T08:13:04.354Z,10.65
2017-04-18T08:14:05.565Z,8.80
2017-04-18T08:15:06.626Z,11.72
2017-04-18T08:16:07.824Z,12.75
2017-04-18T08:17:09.156Z,12.40
2017-04-18T08:18:10.223Z,10.85
2017-04-18T08:19:11.462Z,11.87
2017-04-18T08:20:12.764Z,8.60
2017-04-18T08:21:13.904Z,7.85
2017-04-18T08:22:15.451Z,7.20
2017-04-18T08:23:16.619Z,7.95
2017-04-18T08:24:17.856Z,6.52
2017-04-18T08:25:19.028Z,6.63
2017-04-18T08:26:20.327Z,6.40
2017-04-18T08:27:21.567Z,6.93
2017-04-18T08:28:22.912Z,6.92
2017-04-18T08:29:23.826Z,6.65
2017-04-18T08:30:25.390Z,6.23
2017-04-18T08:31:26.300Z,7.72
2017-04-18T08:32:27.635Z,7.53
2017-04-18T08:33:29.371Z,7.57
2017-04-18T08:34:30.785Z,5.97
2017-04-18T08:35:32.180Z,7.30
2017-04-18T08:36:33.392Z,5.98
2017-04-18T08:37:34.988Z,7.73
2017-04-18T08:38:36.180Z,6.17
2017-04-18T08:39:37.189Z,7.37
2017-04-18T08:40:38.444Z,7.15
2017-04-18T08:41:39.673Z,7.17
2017-04-18T08:42:41.187Z,8.85
2017-04-18T08:43:42.627Z,8.60
2017-04-18T08:44:43.883Z,7.52
2017-04-18T08:45:45.448Z,8.75
2017-04-18T08:46:46.373Z,7.58
2017-04-18T08:47:47.578Z,7.90
2017-04-18T08:48:48.882Z,6.90
2017-04-18T08:49:50.402Z,7.33
2017-04-18T08:50:51.715Z,8.13
2017-04-18T08:51:53.008Z,5.93
2017-04-18T08:52:54.210Z,7.08
2017-04-18T08:53:55.420Z,6.38
2017-04-18T08:54:56.750Z,5.93
2017-04-18T08:55:57.909Z,5.43
2017-04-18T08:56:59.065Z,5.37
2017-04-18T08:58:00.995Z,5.55
2017-04-18T08:59:02.051Z,5.07
2017-04-18T09:00:03.372Z,6.80
2017-04-18T09:01:04.556Z,5.80
2017-04-18T09:02:05.643Z,10.42
2017-04-18T09:03:07.094Z,16.32
2017-04-18T09:04:08.494Z,15.52
2017-04-18T09:05:09.551Z,14.38
2017-04-18T09:06:10.801Z,13.60
2017-04-18T09:07:12.133Z,13.92
2017-04-18T09:08:13.780Z,9.75
2017-04-18T09:09:15.868Z,10.10
2017-04-18T09:10:16.760Z,9.72
2017-04-18T09:11:17.657Z,10.93
2017-04-18T09:12:18.960Z,11.30
2017-04-18T09:13:20.139Z,9.53
2017-04-18T09:14:21.528Z,9.68
2017-04-18T09:15:22.487Z,9.62
2017-04-18T09:16:23.824Z,9.65
2017-04-18T09:17:25.095Z,10.73
2017-04-18T09:18:26.296Z,7.92
2017-04-18T09:19:27.532Z,9.73
2017-04-18T09:20:28.623Z,10.63
2017-04-18T09:21:29.916Z,11.55
2017-04-18T09:22:31.515Z,9.00
2017-04-18T09:23:32.876Z,9.17
2017-04-18T09:24:33.969Z,8.15
2017-04-18T09:25:35.112Z,8.40
2017-04-18T09:26:36.652Z,9.68
2017-04-18T09:27:37.864Z,9.43
2017-04-18T09:28:39.157Z,10.58
2017-04-18T09:29:40.381Z,9.28
2017-04-18T09:30:41.614Z,10.02
2017-04-18T09:31:42.878Z,8.65
2017-04-18T09:32:44.045Z,10.80
2017-04-18T09:33:45.681Z,11.72
2017-04-18T09:34:47.069Z,10.33
2017-04-18T09:35:48.279Z,10.17
2017-04-18T09:36:49.812Z,11.88
2017-04-18T09:37:51.152Z,10.32
2017-04-18T09:38:52.702Z,10.93
2017-04-18T09:39:53.895Z,10.65
2017-04-18T09:40:55.158Z,10.45
2017-04-18T09:41:56.580Z,11.20
2017-04-18T09:42:57.462Z,10.87
2017-04-18T09:43:59.764Z,12.75
2017-04-18T09:45:00.898Z,12.13
2017-04-18T09:46:02.053Z,11.68
2017-04-18T09:47:03.255Z,10.70
2017-04-18T09:48:04.237Z,11.70
2017-04-18T09:49:05.380Z,13.37
2017-04-18T09:50:06.994Z,14.10
2017-04-18T09:51:08.127Z,15.65
2017-04-18T09:52:09.819Z,14.05
2017-04-18T09:53:11.123Z,13.50
2017-04-18T09:54:12.489Z,12.68
2017-04-18T09:55:13.884Z,15.28
2017-04-18T09:56:15.172Z,15.62
2017-04-18T09:57:16.352Z,14.10
2017-04-18T09:58:17.739Z,13.85
2017-04-18T09:59:18.729Z,14.87
2017-04-18T10:00:20.138Z,13.50
2017-04-18T10:01:21.343Z,15.85
2017-04-18T10:02:22.327Z,14.93
2017-04-18T10:03:23.615Z,14.10
2017-04-18T10:04:25.151Z,15.67
2017-04-18T10:05:26.788Z,16.77
2017-04-18T10:06:28.044Z,15.92
2017-04-18T10:07:29.469Z,18.25
2017-04-18T10:08:30.560Z,16.75
2017-04-18T10:09:32.470Z,20.33
2017-04-18T10:10:33.466Z,18.37
2017-04-18T10:11:34.759Z,18.08
2017-04-18T10:12:36.379Z,23.28
2017-04-18T10:13:37.523Z,28.83
2017-04-18T10:14:38.943Z,23.05
2017-04-18T10:15:40.296Z,21.12
2017-04-18T10:16:41.445Z,22.65
2017-04-18T10:17:42.833Z,25.95
2017-04-18T10:18:44.219Z,24.35
2017-04-18T10:19:45.634Z,26.00
2017-04-18T10:20:46.879Z,27.22
2017-04-18T10:21:48.314Z,26.82
2017-04-18T10:22:49.761Z,22.85
2017-04-18T10:23:51.100Z,28.87
2017-04-18T10:24:52.522Z,25.30
2017-04-18T10:25:53.767Z,32.65
2017-04-18T10:26:55.038Z,27.78
2017-04-18T10:27:55.951Z,22.05
2017-04-18T10:28:57.195Z,32.78
2017-04-18T10:29:58.441Z,31.90
2017-04-18T10:30:59.720Z,30.93
2017-04-18T10:32:00.764Z,29.90
2017-04-18T10:33:01.790Z,28.75
2017-04-18T10:34:02.956Z,28.25
2017-04-18T10:35:04.076Z,28.37
2017-04-18T10:36:05.039Z,29.18
2017-04-18T10:37:06.159Z,28.75
2017-04-18T10:38:07.544Z,27.48
2017-04-18T10:39:08.787Z,26.85
2017-04-18T10:40:10.111Z,29.93
2017-04-18T10:41:11.510Z,27.65
2017-04-18T10:42:12.774Z,30.35
2017-04-18T10:43:14.123Z,29.57
2017-04-18T10:44:15.317Z,29.77
2017-04-18T10:45:16.420Z,28.38
2017-04-18T10:46:17.649Z,25.68
2017-04-18T10:47:18.839Z,28.82
2017-04-18T10:48:20.160Z,30.50
2017-04-18T10:49:21.437Z,24.65
2017-04-18T10:50:22.629Z,27.17
2017-04-18T10:51:23.942Z,29.38
2017-04-18T10:52:25.039Z,27.35
2017-04-18T10:53:26.071Z,24.07
2017-04-18T10:54:27.332Z,33.33
2017-04-18T10:55:28.675Z,27.77
2017-04-18T10:56:30.378Z,32.50
2017-04-18T10:57:31.688Z,29.02
2017-04-18T10:58:32.771Z,31.75
2017-04-18T10:59:33.932Z,33.15
2017-04-18T11:00:35.048Z,30.68
2017-04-18T11:01:36.016Z,28.93
2017-04-18T11:02:37.262Z,29.95
2017-04-18T11:03:38.531Z,27.58
2017-04-18T11:04:39.573Z,31.08
2017-04-18T11:05:41.184Z,22.57
2017-04-18T11:06:42.293Z,27.10
2017-04-18T11:07:43.829Z,28.98
2017-04-18T11:08:45.421Z,28.05
2017-04-18T11:09:46.425Z,26.92
2017-04-18T11:10:47.787Z,28.98
2017-04-18T11:11:49.151Z,25.57
2017-04-18T11:12:50.739Z,28.52
2017-04-18T11:13:51.920Z,28.43
2017-04-18T11:14:53.320Z,26.50
2017-04-18T11:15:54.666Z,25.72
2017-04-18T11:16:55.875Z,25.13
2017-04-18T11:17:57.005Z,27.45
2017-04-18T11:18:58.059Z,30.22
2017-04-18T11:19:59.084Z,23.48
2017-04-18T11:21:00.169Z,24.35
2017-04-18T11:22:01.746Z,25.02
2017-04-18T11:23:03.134Z,19.30
2017-04-18T11:24:04.165Z,23.55
2017-04-18T11:25:05.387Z,27.80
2017-04-18T11:26:07.080Z,21.73
2017-04-18T11:27:08.191Z,28.90
2017-04-18T11:28:09.670Z,26.20
2017-04-18T11:29:11.106Z,24.63
2017-04-18T11:30:12.505Z,21.77
2017-04-18T11:31:13.676Z,23.45
2017-04-18T11:32:14.949Z,24.02
2017-04-18T11:33:16.221Z,22.53
2017-04-18T11:34:18.855Z,21.88
2017-04-18T11:35:20.425Z,24.43
2017-04-18T11:36:21.714Z,20.98
2017-04-18T11:37:22.987Z,23.60
2017-04-18T11:38:23.966Z,23.08
2017-04-18T11:39:25.243Z,24.77
2017-04-18T11:40:26.239Z,24.28
2017-04-18T11:41:27.432Z,22.05
2017-04-18T11:42:28.763Z,21.38
2017-04-18T11:43:29.832Z,22.88
2017-04-18T11:44:30.953Z,22.92
2017-04-18T11:45:32.468Z,19.98
2017-04-18T11:46:33.695Z,20.13
2017-04-18T11:47:34.972Z,19.18
2017-04-18T11:48:36.026Z,19.82
2017-04-18T11:49:37.603Z,20.48
2017-04-18T11:50:38.979Z,20.07
2017-04-18T11:51:40.347Z,22.67
2017-04-18T11:52:41.816Z,22.02
2017-04-18T11:53:42.944Z,22.73
2017-04-18T11:54:44.841Z,19.28
2017-04-18T11:55:45.933Z,20.43
2017-04-18T11:56:47.281Z,19.58
2017-04-18T11:57:48.249Z,20.82
2017-04-18T11:58:49.424Z,20.97
2017-04-18T11:59:50.903Z,19.38
2017-04-18T12:00:52.512Z,20.13
2017-04-18T12:01:53.663Z,22.17
2017-04-18T12:02:54.636Z,20.63
2017-04-18T12:03:55.776Z,22.90
2017-04-18T12:04:57.320Z,21.62
2017-04-18T12:05:58.565Z,19.65
2017-04-18T12:07:00.044Z,20.42
2017-04-18T12:08:01.323Z,19.58
2017-04-18T12:09:02.857Z,16.57
2017-04-18T12:10:04.080Z,17.23
2017-04-18T12:11:05.397Z,18.57
2017-04-18T12:12:06.567Z,17.83
2017-04-18T12:13:07.694Z,18.30
2017-04-18T12:14:09.037Z,18.58
2017-04-18T12:15:10.095Z,16.88
2017-04-18T12:16:11.657Z,16.97
2017-04-18T12:17:12.858Z,17.52
2017-04-18T12:18:14.152Z,18.87
2017-04-18T12:19:15.634Z,18.20
2017-04-18T12:20:16.969Z,17.37
2017-04-18T12:21:18.254Z,15.92
2017-04-18T12:22:19.472Z,17.90
2017-04-18T12:23:20.781Z,19.12
2017-04-18T12:24:22.074Z,17.95
2017-04-18T12:25:23.613Z,19.32
2017-04-18T12:26:24.949Z,20.13
2017-04-18T12:27:26.173Z,20.50
2017-04-18T12:28:27.428Z,18.93
2017-04-18T12:29:29.060Z,19.22
2017-04-18T12:30:30.127Z,19.48
2017-04-18T12:31:31.252Z,18.22
2017-04-18T12:32:32.675Z,19.62
2017-04-18T12:33:33.911Z,19.25
2017-04-18T12:34:35.184Z,21.35
2017-04-18T12:35:36.837Z,18.48
2017-04-18T12:36:37.935Z,21.23
2017-04-18T12:37:39.101Z,18.72
2017-04-18T12:38:40.372Z,18.73
2017-04-18T12:39:41.579Z,18.27
2017-04-18T12:40:43.115Z,18.25
2017-04-18T12:41:44.250Z,19.05
2017-04-18T12:42:45.675Z,18.00
2017-04-18T12:43:47.260Z,18.32
2017-04-18T12:44:48.593Z,19.87
2017-04-18T12:45:49.995Z,18.55
2017-04-18T12:46:51.825Z,18.15
2017-04-18T12:47:53.384Z,18.43
2017-04-18T12:48:54.711Z,18.17
2017-04-18T12:49:56.167Z,15.97
2017-04-18T12:50:57.372Z,18.82
2017-04-18T12:51:58.562Z,17.95
2017-04-18T12:52:59.789Z,18.12
2017-04-18T12:54:01.140Z,18.80
2017-04-18T12:55:02.213Z,22.25
2017-04-18T12:56:03.578Z,18.02
2017-04-18T12:57:04.714Z,19.00
2017-04-18T12:58:07.293Z,18.92
2017-04-18T12:59:08.521Z,18.52
2017-04-18T13:00:09.737Z,18.40
2017-04-18T13:01:10.979Z,18.92
2017-04-18T13:02:12.170Z,17.82
2017-04-18T13:03:13.625Z,17.48
2017-04-18T13:04:14.803Z,17.00
2017-04-18T13:05:16.202Z,18.83
2017-04-18T13:06:17.444Z,18.57
2017-04-18T13:07:18.895Z,16.37
2017-04-18T13:08:20.168Z,17.28
2017-04-18T13:09:21.436Z,15.98
2017-04-18T13:10:22.631Z,15.92
2017-04-18T13:11:23.907Z,13.60
2017-04-18T13:12:25.331Z,17.62
2017-04-18T13:13:26.629Z,15.87
2017-04-18T13:14:27.828Z,15.82
2017-04-18T13:15:29.032Z,16.18
2017-04-18T13:16:30.304Z,17.35
2017-04-18T13:17:31.930Z,16.70
2017-04-18T13:18:33.232Z,16.73
2017-04-18T13:19:34.709Z,16.93
2017-04-18T13:20:35.915Z,17.55
2017-04-18T13:21:37.050Z,16.18
2017-04-18T13:22:38.278Z,16.32
2017-04-18T13:23:39.502Z,16.95
2017-04-18T13:24:40.657Z,16.75